createdAt,value
2023-02-24T00:02:15.208Z,49.31
2023-02-24T00:04:45.602Z,50.00
2023-02-24T00:07:14.236Z,49.47
2023-02-24T00:09:44.711Z,50.08
2023-02-24T00:12:15.110Z,50.17
2023-02-24T00:14:46.286Z,50.57
2023-02-24T00:17:15.512Z,50.16
2023-02-24T00:19:46.514Z,50.86
2023-02-24T00:22:15.140Z,51.15
2023-02-24T00:24:43.978Z,51.37
2023-02-24T00:27:12.635Z,51.67
2023-02-24T00:29:42.464Z,52.14
2023-02-24T00:32:13.364Z,52.19
2023-02-24T00:34:43.374Z,52.22
2023-02-24T00:37:15.515Z,52.03
2023-02-24T00:39:46.800Z,53.17
2023-02-24T00:42:15.509Z,52.88
2023-02-24T00:44:46.946Z,53.48
2023-02-24T00:47:17.774Z,53.52
2023-02-24T00:49:46.974Z,53.22
2023-02-24T00:52:18.828Z,53.55
2023-02-24T00:54:49.220Z,54.17
2023-02-24T00:57:20.824Z,54.61
2023-02-24T00:59:51.758Z,55.16
2023-02-24T01:02:21.489Z,56.09
2023-02-24T01:04:51.133Z,55.83
2023-02-24T01:07:21.209Z,56.25
2023-02-24T01:09:52.154Z,55.31
2023-02-24T01:12:38.255Z,55.56
2023-02-24T01:15:10.107Z,55.77
2023-02-24T01:17:41.223Z,55.70
2023-02-24T01:20:18.510Z,56.10
2023-02-24T01:22:50.516Z,56.20
2023-02-24T01:25:20.594Z,55.92
2023-02-24T01:27:49.404Z,57.23
2023-02-24T01:30:18.774Z,57.61
2023-02-24T01:32:48.576Z,58.24
2023-02-24T01:35:17.993Z,58.08
2023-02-24T01:37:48.057Z,57.56
2023-02-24T01:40:21.832Z,57.80
2023-02-24T01:42:54.046Z,57.30
2023-02-24T01:45:26.010Z,58.02
2023-02-24T01:47:57.633Z,57.77
2023-02-24T01:50:28.238Z,57.91
2023-02-24T01:53:02.128Z,57.89
2023-02-24T01:55:34.917Z,57.27
2023-02-24T01:58:10.056Z,57.15
2023-02-24T02:00:45.383Z,57.56
2023-02-24T02:03:30.948Z,56.98
2023-02-24T02:06:03.086Z,57.08
2023-02-24T02:08:36.644Z,57.06
2023-02-24T02:11:08.021Z,57.30
2023-02-24T02:13:38.186Z,56.44
2023-02-24T02:16:29.735Z,56.69
2023-02-24T02:19:18.652Z,56.50
2023-02-24T02:22:27.458Z,55.58
2023-02-24T02:25:03.414Z,55.73
2023-02-24T02:27:58.101Z,55.18
2023-02-24T02:31:07.302Z,54.78
2023-02-24T02:34:08.409Z,54.68
2023-02-24T02:36:47.681Z,55.35
2023-02-24T02:39:27.632Z,54.94
2023-02-24T02:42:06.725Z,54.87
2023-02-24T02:44:40.957Z,54.86
2023-02-24T02:47:14.812Z,55.92
2023-02-24T02:49:51.183Z,55.47
2023-02-24T02:52:27.085Z,55.40
2023-02-24T02:55:02.372Z,55.70
2023-02-24T02:57:34.054Z,55.70
2023-02-24T03:00:13.322Z,56.27
2023-02-24T03:02:48.963Z,56.20
2023-02-24T03:05:23.608Z,55.87
2023-02-24T03:07:54.807Z,55.96
2023-02-24T03:10:29.005Z,56.82
2023-02-24T03:13:00.941Z,56.59
2023-02-24T03:15:34.379Z,56.10
2023-02-24T03:18:10.699Z,56.75
2023-02-24T03:20:47.926Z,56.07
2023-02-24T03:23:20.857Z,56.23
2023-02-24T03:25:58.672Z,56.79
2023-02-24T03:28:37.537Z,56.79
2023-02-24T03:31:18.417Z,58.27
2023-02-24T03:34:00.596Z,57.92
2023-02-24T03:36:32.189Z,58.48
2023-02-24T03:39:02.700Z,59.23
2023-02-24T03:41:41.405Z,58.70
2023-02-24T03:44:12.310Z,58.75
2023-02-24T03:46:42.693Z,59.24
2023-02-24T03:49:14.220Z,59.11
2023-02-24T03:51:48.889Z,59.57
2023-02-24T03:54:46.923Z,58.73
2023-02-24T03:57:27.841Z,58.56
2023-02-24T04:00:26.489Z,58.74
2023-02-24T04:03:06.615Z,57.28
2023-02-24T04:05:47.640Z,57.96
2023-02-24T04:08:21.281Z,56.81
2023-02-24T04:10:57.489Z,56.66
2023-02-24T04:13:36.943Z,55.73
2023-02-24T04:16:28.086Z,56.51
2023-02-24T04:19:03.773Z,55.66
2023-02-24T04:21:37.115Z,55.50
2023-02-24T04:24:15.092Z,56.80
2023-02-24T04:26:48.551Z,56.72
2023-02-24T04:29:23.174Z,56.40
2023-02-24T04:31:57.860Z,56.02
2023-02-24T04:34:32.430Z,55.98
2023-02-24T04:37:03.210Z,55.93
2023-02-24T04:39:34.307Z,55.99
2023-02-24T04:42:05.349Z,56.31
2023-02-24T04:44:34.784Z,55.27
2023-02-24T04:47:03.984Z,55.24
2023-02-24T04:49:34.045Z,55.31
2023-02-24T04:52:02.551Z,55.92
2023-02-24T04:54:31.538Z,55.37
2023-02-24T04:57:01.601Z,55.34
2023-02-24T04:59:30.531Z,55.13
2023-02-24T05:02:01.576Z,55.08
2023-02-24T05:04:31.965Z,55.07
2023-02-24T05:07:00.828Z,55.23
2023-02-24T05:09:30.272Z,54.87
2023-02-24T05:11:59.122Z,54.61
2023-02-24T05:14:31.095Z,55.06
2023-02-24T05:17:00.521Z,54.17
2023-02-24T05:19:47.173Z,53.57
2023-02-24T05:22:17.751Z,53.85
2023-02-24T05:24:48.092Z,53.11
2023-02-24T05:27:17.447Z,53.22
2023-02-24T05:29:48.863Z,53.65
2023-02-24T05:32:19.027Z,52.77
2023-02-24T05:34:49.622Z,52.67
2023-02-24T05:37:18.522Z,52.72
2023-02-24T05:39:47.463Z,53.48
2023-02-24T05:42:17.401Z,53.58
2023-02-24T05:44:47.988Z,53.23
2023-02-24T05:47:19.820Z,52.20
2023-02-24T05:49:51.917Z,51.63
2023-02-24T05:52:20.597Z,51.28
2023-02-24T05:54:49.945Z,51.00
2023-02-24T05:57:24.843Z,50.73
2023-02-24T05:59:55.963Z,50.70
2023-02-24T06:02:29.292Z,50.72
2023-02-24T06:05:00.976Z,50.39
2023-02-24T06:07:34.347Z,49.98
2023-02-24T06:10:09.597Z,49.62
2023-02-24T06:12:39.932Z,49.62
2023-02-24T06:15:11.338Z,49.85
2023-02-24T06:17:40.120Z,49.59
2023-02-24T06:20:15.490Z,49.23
2023-02-24T06:22:44.135Z,49.12
2023-02-24T06:25:13.070Z,49.01
2023-02-24T06:27:43.206Z,48.89
2023-02-24T06:30:15.556Z,48.92
2023-02-24T06:32:44.855Z,48.41
2023-02-24T06:35:13.868Z,48.18
2023-02-24T06:37:42.552Z,48.76
2023-02-24T06:40:15.901Z,48.86
2023-02-24T06:42:49.220Z,48.70
2023-02-24T06:45:19.546Z,48.95
2023-02-24T06:47:48.957Z,48.85
2023-02-24T06:50:21.858Z,48.98
2023-02-24T06:52:53.263Z,48.79
2023-02-24T06:55:28.193Z,48.50
2023-02-24T06:57:58.798Z,48.43
2023-02-24T07:00:39.001Z,48.67
2023-02-24T07:03:15.784Z,48.87
2023-02-24T07:05:50.419Z,48.87
2023-02-24T07:08:21.209Z,48.68
2023-02-24T07:10:56.137Z,48.72
2023-02-24T07:13:25.505Z,49.00
2023-02-24T07:15:55.842Z,48.77
2023-02-24T07:18:26.670Z,48.61
2023-02-24T07:20:55.654Z,48.47
2023-02-24T07:23:24.177Z,48.33
2023-02-24T07:25:53.447Z,48.46
2023-02-24T07:28:22.966Z,48.33
2023-02-24T07:30:53.045Z,48.42
2023-02-24T07:33:23.178Z,48.15
2023-02-24T07:35:53.966Z,47.71
2023-02-24T07:38:23.080Z,47.74
2023-02-24T07:40:52.522Z,47.73
2023-02-24T07:43:21.385Z,47.06
2023-02-24T07:45:50.417Z,46.66
2023-02-24T07:48:19.038Z,46.56
2023-02-24T07:50:50.920Z,45.94
2023-02-24T07:53:19.766Z,45.14
2023-02-24T07:55:48.725Z,44.67
2023-02-24T07:58:18.596Z,44.34
2023-02-24T08:00:59.532Z,43.91
2023-02-24T08:03:30.668Z,43.36
2023-02-24T08:06:15.554Z,43.96
2023-02-24T08:09:01.234Z,43.93
2023-02-24T08:11:35.702Z,43.13
2023-02-24T08:14:10.908Z,42.83
2023-02-24T08:16:40.832Z,43.13
2023-02-24T08:19:13.273Z,43.60
2023-02-24T08:21:47.493Z,43.01
2023-02-24T08:24:18.815Z,43.02
2023-02-24T08:27:03.938Z,42.69
2023-02-24T08:29:40.198Z,42.44
2023-02-24T08:32:10.360Z,42.34
2023-02-24T08:34:39.748Z,41.99
2023-02-24T08:37:10.265Z,42.95
2023-02-24T08:39:38.967Z,42.93
2023-02-24T08:42:08.193Z,43.10
2023-02-24T08:44:37.286Z,43.07
2023-02-24T08:47:07.694Z,43.05
2023-02-24T08:49:39.553Z,43.04
2023-02-24T08:52:10.132Z,43.14
2023-02-24T08:54:48.177Z,42.51
2023-02-24T08:57:18.361Z,42.63
2023-02-24T08:59:50.195Z,42.39
2023-02-24T09:02:27.378Z,41.97
2023-02-24T09:04:58.947Z,42.20
2023-02-24T09:07:35.675Z,42.08
2023-02-24T09:10:05.635Z,41.76
2023-02-24T09:12:41.144Z,42.26
2023-02-24T09:15:11.510Z,42.15
2023-02-24T09:17:51.064Z,41.53
2023-02-24T09:20:48.162Z,40.94
2023-02-24T09:23:21.282Z,40.76
2023-02-24T09:25:54.494Z,40.34
2023-02-24T09:28:25.942Z,40.10
2023-02-24T09:30:56.323Z,40.21
2023-02-24T09:33:27.597Z,39.79
2023-02-24T09:36:09.760Z,39.64
2023-02-24T09:39:00.552Z,39.83
2023-02-24T09:41:54.056Z,39.42
2023-02-24T09:44:35.073Z,39.14
2023-02-24T09:47:15.895Z,39.03
2023-02-24T09:49:50.791Z,39.06
2023-02-24T09:52:20.956Z,39.18
2023-02-24T09:55:19.175Z,38.96
2023-02-24T09:58:06.536Z,38.83
2023-02-24T10:00:44.185Z,38.25
2023-02-24T10:03:41.663Z,38.15
2023-02-24T10:06:20.954Z,37.51
2023-02-24T10:08:56.177Z,37.11
2023-02-24T10:11:36.710Z,35.93
2023-02-24T10:14:19.419Z,36.20
2023-02-24T10:17:10.623Z,36.48
2023-02-24T10:19:41.341Z,36.40
2023-02-24T10:22:27.577Z,36.62
2023-02-24T10:25:11.050Z,35.95
2023-02-24T10:27:57.930Z,35.67
2023-02-24T10:30:41.910Z,36.46
2023-02-24T10:33:26.543Z,35.84
2023-02-24T10:36:09.281Z,36.60
2023-02-24T10:38:41.197Z,37.31
2023-02-24T10:41:11.433Z,38.00
2023-02-24T10:43:46.503Z,37.68
2023-02-24T10:46:40.221Z,36.97
2023-02-24T10:49:16.844Z,36.40
2023-02-24T10:51:52.423Z,36.50
2023-02-24T10:55:05.201Z,36.42
2023-02-24T10:57:44.747Z,36.47
2023-02-24T11:00:32.682Z,36.05
2023-02-24T11:03:10.384Z,35.69
2023-02-24T11:06:05.448Z,35.25
2023-02-24T11:08:54.331Z,34.35
2023-02-24T11:11:29.980Z,34.05
2023-02-24T11:14:19.100Z,33.12
2023-02-24T11:17:08.944Z,33.64
2023-02-24T11:19:44.317Z,33.45
2023-02-24T11:22:18.748Z,32.62
2023-02-24T11:24:48.912Z,32.86
2023-02-24T11:27:21.950Z,32.60
2023-02-24T11:30:07.229Z,32.72
2023-02-24T11:32:58.139Z,32.40
2023-02-24T11:35:32.661Z,31.65
2023-02-24T11:38:13.951Z,32.01
2023-02-24T11:40:48.372Z,31.87
2023-02-24T11:43:22.381Z,31.95
2023-02-24T11:45:54.367Z,31.88
2023-02-24T11:48:32.254Z,31.64
2023-02-24T11:51:04.523Z,31.55
2023-02-24T11:53:37.042Z,31.48
2023-02-24T11:56:12.297Z,31.70
2023-02-24T11:58:46.342Z,30.87
2023-02-24T12:01:24.425Z,29.89
2023-02-24T12:04:00.882Z,30.19
2023-02-24T12:06:36.471Z,30.42
2023-02-24T12:09:14.509Z,29.68
2023-02-24T12:11:52.063Z,30.00
2023-02-24T12:14:27.742Z,30.23
2023-02-24T12:17:04.228Z,29.90
2023-02-24T12:19:42.540Z,29.66
2023-02-24T12:22:16.407Z,29.53
2023-02-24T12:24:51.555Z,29.65
2023-02-24T12:27:35.345Z,29.97
2023-02-24T12:30:34.271Z,29.87
2023-02-24T12:33:19.626Z,30.05
2023-02-24T12:36:03.055Z,30.36
2023-02-24T12:38:49.761Z,30.63
2023-02-24T12:41:46.450Z,30.71
2023-02-24T12:44:27.956Z,30.36
2023-02-24T12:47:05.715Z,30.28
2023-02-24T12:50:06.949Z,29.82
2023-02-24T12:52:50.402Z,30.41
2023-02-24T12:55:25.878Z,30.68
2023-02-24T12:58:06.147Z,30.04
2023-02-24T13:00:44.449Z,30.27
2023-02-24T13:03:29.952Z,29.95
2023-02-24T13:06:07.543Z,30.17
2023-02-24T13:08:47.365Z,30.08
2023-02-24T13:11:28.571Z,30.50
2023-02-24T13:14:05.878Z,30.10
2023-02-24T13:16:37.166Z,29.87
2023-02-24T13:19:08.433Z,30.33
2023-02-24T13:21:38.503Z,31.74
2023-02-24T13:24:22.787Z,31.17
2023-02-24T13:26:51.568Z,30.70
2023-02-24T13:29:20.720Z,30.22
2023-02-24T13:31:51.448Z,30.11
2023-02-24T13:34:33.587Z,29.74
2023-02-24T13:37:02.629Z,30.49
2023-02-24T13:39:37.909Z,30.51
2023-02-24T13:42:21.661Z,30.44
2023-02-24T13:44:53.565Z,30.70
2023-02-24T13:47:59.355Z,30.26
2023-02-24T13:50:36.006Z,30.17
2023-02-24T13:53:30.532Z,30.83
2023-02-24T13:56:17.274Z,30.61
2023-02-24T13:59:01.847Z,30.03
2023-02-24T14:01:34.103Z,30.42
2023-02-24T14:04:07.828Z,30.34
2023-02-24T14:06:37.460Z,30.06
2023-02-24T14:09:08.137Z,30.41
2023-02-24T14:11:39.213Z,30.51
2023-02-24T14:14:08.677Z,30.28
2023-02-24T14:16:40.900Z,31.17
2023-02-24T14:19:16.776Z,30.83
2023-02-24T14:21:52.084Z,30.92
2023-02-24T14:24:21.412Z,31.16
2023-02-24T14:26:54.315Z,31.14
2023-02-24T14:29:26.691Z,30.72
2023-02-24T14:31:59.497Z,30.27
2023-02-24T14:34:30.929Z,30.25
2023-02-24T14:37:03.855Z,30.41
2023-02-24T14:39:34.342Z,30.56
2023-02-24T14:42:16.028Z,30.15
2023-02-24T14:44:46.511Z,30.37
2023-02-24T14:47:17.716Z,30.23
2023-02-24T14:49:55.776Z,29.98
2023-02-24T14:52:31.739Z,29.79
2023-02-24T14:55:04.506Z,29.93
2023-02-24T14:57:39.551Z,29.66
2023-02-24T15:00:17.520Z,29.96
2023-02-24T15:02:52.583Z,29.76
2023-02-24T15:05:21.361Z,29.57
2023-02-24T15:07:51.863Z,29.53
2023-02-24T15:10:24.254Z,29.76
2023-02-24T15:13:00.717Z,29.65
2023-02-24T15:15:35.468Z,29.67
2023-02-24T15:18:12.563Z,29.84
2023-02-24T15:20:42.014Z,29.47
2023-02-24T15:23:28.018Z,29.51
2023-02-24T15:25:56.583Z,29.40
2023-02-24T15:28:31.027Z,29.77
2023-02-24T15:31:17.023Z,29.58
2023-02-24T15:33:54.307Z,29.67
2023-02-24T15:36:26.370Z,29.69
2023-02-24T15:38:58.436Z,29.67
2023-02-24T15:41:39.516Z,29.42
2023-02-24T15:44:29.531Z,29.64
2023-02-24T15:46:59.714Z,29.53
2023-02-24T15:49:28.692Z,29.67
2023-02-24T15:51:59.871Z,29.41
2023-02-24T15:54:31.879Z,29.77
2023-02-24T15:57:02.260Z,29.63
2023-02-24T15:59:32.849Z,29.54
2023-02-24T16:02:01.505Z,29.93
2023-02-24T16:04:30.455Z,29.92
2023-02-24T16:06:59.523Z,30.26
2023-02-24T16:09:33.691Z,30.22
2023-02-24T16:12:05.014Z,30.59
2023-02-24T16:14:35.710Z,30.94
2023-02-24T16:17:10.018Z,30.74
2023-02-24T16:19:38.970Z,30.77
2023-02-24T16:22:08.132Z,31.08
2023-02-24T16:24:37.066Z,31.11
2023-02-24T16:27:06.734Z,31.42
2023-02-24T16:29:36.982Z,31.51
2023-02-24T16:32:05.983Z,31.52
2023-02-24T16:34:34.983Z,31.66
2023-02-24T16:37:03.617Z,31.50
2023-02-24T16:39:32.553Z,31.26
2023-02-24T16:42:06.210Z,30.99
2023-02-24T16:44:36.574Z,31.26
2023-02-24T16:47:07.360Z,31.19
2023-02-24T16:49:36.522Z,31.29
2023-02-24T16:52:05.186Z,31.29
2023-02-24T16:54:33.952Z,31.12
2023-02-24T16:57:02.472Z,31.50
2023-02-24T16:59:32.242Z,31.47
2023-02-24T17:02:03.015Z,31.53
2023-02-24T17:04:32.254Z,31.51
2023-02-24T17:07:01.355Z,31.83
2023-02-24T17:09:31.605Z,31.70
2023-02-24T17:12:00.288Z,31.80
2023-02-24T17:14:29.284Z,31.74
2023-02-24T17:16:59.466Z,31.79
2023-02-24T17:19:30.252Z,31.86
2023-02-24T17:21:58.969Z,31.77
2023-02-24T17:24:28.577Z,32.06
2023-02-24T17:26:58.805Z,31.98
2023-02-24T17:29:27.784Z,32.21
2023-02-24T17:31:57.551Z,32.22
2023-02-24T17:34:27.015Z,32.58
2023-02-24T17:36:56.971Z,32.48
2023-02-24T17:39:25.822Z,32.90
2023-02-24T17:41:54.456Z,32.66
2023-02-24T17:44:23.539Z,32.32
2023-02-24T17:46:53.169Z,32.42
2023-02-24T17:49:22.165Z,32.44
2023-02-24T17:51:50.745Z,32.24
2023-02-24T17:54:21.033Z,32.34
2023-02-24T17:56:49.526Z,32.64
2023-02-24T17:59:18.589Z,33.21
2023-02-24T18:01:47.366Z,32.86
2023-02-24T18:04:16.455Z,33.21
2023-02-24T18:06:45.749Z,33.20
2023-02-24T18:09:14.684Z,33.07
2023-02-24T18:11:46.048Z,33.59
2023-02-24T18:14:15.645Z,33.85
2023-02-24T18:16:44.456Z,34.29
2023-02-24T18:19:13.360Z,34.27
2023-02-24T18:21:41.860Z,34.83
2023-02-24T18:24:10.968Z,34.73
2023-02-24T18:26:39.500Z,34.98
2023-02-24T18:29:09.806Z,34.88
2023-02-24T18:31:38.602Z,34.67
2023-02-24T18:34:08.029Z,34.66
2023-02-24T18:36:36.654Z,34.67
2023-02-24T18:39:06.165Z,34.78
2023-02-24T18:41:34.765Z,34.82
2023-02-24T18:44:03.717Z,34.86
2023-02-24T18:46:34.161Z,35.24
2023-02-24T18:49:03.668Z,34.97
2023-02-24T18:51:32.607Z,35.19
2023-02-24T18:54:01.691Z,35.28
2023-02-24T18:56:32.209Z,35.40
2023-02-24T18:59:02.393Z,35.25
2023-02-24T19:01:34.610Z,35.16
2023-02-24T19:04:04.531Z,35.62
2023-02-24T19:06:33.893Z,35.56
2023-02-24T19:09:06.119Z,35.14
2023-02-24T19:11:36.150Z,35.37
2023-02-24T19:14:05.574Z,35.60
2023-02-24T19:16:36.460Z,35.81
2023-02-24T19:19:05.678Z,35.76
2023-02-24T19:21:35.137Z,35.95
2023-02-24T19:24:08.329Z,35.84
2023-02-24T19:26:37.122Z,36.36
2023-02-24T19:29:06.401Z,36.17
2023-02-24T19:31:36.525Z,35.90
2023-02-24T19:34:07.843Z,36.20
2023-02-24T19:36:37.626Z,35.95
2023-02-24T19:39:09.944Z,35.53
2023-02-24T19:41:38.813Z,35.21
2023-02-24T19:44:08.246Z,35.37
2023-02-24T19:46:39.066Z,35.49
2023-02-24T19:49:08.081Z,35.87
2023-02-24T19:51:36.818Z,35.90
2023-02-24T19:54:06.944Z,36.36
2023-02-24T19:56:37.394Z,35.50
2023-02-24T19:59:09.041Z,36.11
2023-02-24T20:01:39.116Z,35.25
2023-02-24T20:04:08.673Z,35.43
2023-02-24T20:06:39.471Z,35.12
2023-02-24T20:09:10.322Z,34.99
2023-02-24T20:11:40.111Z,35.29
2023-02-24T20:14:10.948Z,35.36
2023-02-24T20:16:41.615Z,35.55
2023-02-24T20:19:11.706Z,35.18
2023-02-24T20:21:40.658Z,35.40
2023-02-24T20:24:13.704Z,35.55
2023-02-24T20:26:46.971Z,35.33
2023-02-24T20:29:17.345Z,35.47
2023-02-24T20:31:48.818Z,35.41
2023-02-24T20:34:17.908Z,36.22
2023-02-24T20:36:46.826Z,36.05
2023-02-24T20:39:15.747Z,35.85
2023-02-24T20:41:44.891Z,36.21
2023-02-24T20:44:14.086Z,36.60
2023-02-24T20:46:43.243Z,36.00
2023-02-24T20:49:14.965Z,36.42
2023-02-24T20:51:45.132Z,36.15
2023-02-24T20:54:14.835Z,35.93
2023-02-24T20:56:45.738Z,36.04
2023-02-24T20:59:16.913Z,36.22
2023-02-24T21:01:47.558Z,36.18
2023-02-24T21:04:20.985Z,36.01
2023-02-24T21:06:51.517Z,36.00
2023-02-24T21:09:20.419Z,35.86
2023-02-24T21:11:49.110Z,35.67
2023-02-24T21:14:18.213Z,36.01
2023-02-24T21:16:47.152Z,35.33
2023-02-24T21:19:18.054Z,36.04
2023-02-24T21:21:46.782Z,35.79
2023-02-24T21:24:15.689Z,35.58
2023-02-24T21:26:44.280Z,36.31
2023-02-24T21:29:13.196Z,36.36
2023-02-24T21:31:42.370Z,36.76
2023-02-24T21:34:12.243Z,36.73
2023-02-24T21:36:42.227Z,36.74
2023-02-24T21:39:14.531Z,36.79
2023-02-24T21:41:43.654Z,37.42
2023-02-24T21:44:14.835Z,36.88
2023-02-24T21:46:43.925Z,37.50
2023-02-24T21:49:14.447Z,37.60
2023-02-24T21:51:45.893Z,37.60
2023-02-24T21:54:14.774Z,37.16
2023-02-24T21:56:43.444Z,36.87
2023-02-24T21:59:12.415Z,36.95
2023-02-24T22:01:43.395Z,37.04
2023-02-24T22:04:14.521Z,37.52
2023-02-24T22:06:45.121Z,37.07
2023-02-24T22:09:19.348Z,37.19
2023-02-24T22:11:49.857Z,37.39
2023-02-24T22:14:21.354Z,37.21
2023-02-24T22:16:50.114Z,37.36
2023-02-24T22:19:20.224Z,37.14
2023-02-24T22:21:50.339Z,36.82
2023-02-24T22:24:19.686Z,36.98
2023-02-24T22:26:48.304Z,37.62
2023-02-24T22:29:17.366Z,36.81
2023-02-24T22:31:49.528Z,36.61
2023-02-24T22:34:18.969Z,36.78
2023-02-24T22:36:48.978Z,36.36
2023-02-24T22:39:17.962Z,37.02
2023-02-24T22:41:47.600Z,37.41
2023-02-24T22:44:19.323Z,37.07
2023-02-24T22:46:49.537Z,36.85
2023-02-24T22:49:19.677Z,37.16
2023-02-24T22:51:49.679Z,36.89
2023-02-24T22:54:19.087Z,36.83
2023-02-24T22:56:47.735Z,36.64
2023-02-24T22:59:17.152Z,36.79
2023-02-24T23:01:45.660Z,37.19
2023-02-24T23:04:18.204Z,37.34
2023-02-24T23:06:47.735Z,36.91
2023-02-24T23:09:19.956Z,37.29
2023-02-24T23:11:49.180Z,36.86
2023-02-24T23:14:18.330Z,36.63
2023-02-24T23:16:48.311Z,36.85
2023-02-24T23:19:18.824Z,37.08
2023-02-24T23:21:49.795Z,37.14
2023-02-24T23:24:21.164Z,36.69
2023-02-24T23:26:53.877Z,37.11
2023-02-24T23:29:24.077Z,36.66
2023-02-24T23:31:53.433Z,36.58
2023-02-24T23:34:22.579Z,37.17
2023-02-24T23:36:51.208Z,36.81
2023-02-24T23:39:23.998Z,36.91
2023-02-24T23:41:57.556Z,36.77
2023-02-24T23:44:26.706Z,36.72
2023-02-24T23:46:58.121Z,36.81
2023-02-24T23:49:36.263Z,36.74
2023-02-24T23:52:14.786Z,37.50
2023-02-24T23:54:44.946Z,37.37
2023-02-24T23:57:13.539Z,36.78
2023-02-24T23:59:42.654Z,36.52
